createdAt,value
2019-06-15T07:18:33.181Z,97544.32
2019-06-15T07:21:35.844Z,97555.45
2019-06-15T07:24:35.634Z,97557.48
2019-06-15T07:27:38.188Z,97552.38
2019-06-15T07:30:38.283Z,97561.58
2019-06-15T07:33:38.143Z,97564.44
2019-06-15T07:36:34.752Z,97557.23
2019-06-15T07:39:37.448Z,97563.31
2019-06-15T07:42:42.986Z,97554.04
2019-06-15T07:45:37.134Z,97558.52
2019-06-15T07:48:37.982Z,97562.53
2019-06-15T07:51:37.943Z,97555.91
2019-06-15T07:54:07.948Z,97565.55
2019-06-15T07:56:39.175Z,97562.74
2019-06-15T07:59:36.138Z,97568.77
2019-06-15T08:02:35.635Z,97570.92
2019-06-15T08:05:38.188Z,97571.59
2019-06-15T08:08:08.297Z,97577.25
2019-06-15T08:10:38.377Z,97581.12
2019-06-15T08:13:10.014Z,97583.53
2019-06-15T08:15:39.939Z,97592.34
2019-06-15T08:18:09.940Z,97596.63
2019-06-15T08:20:40.455Z,97605.99
2019-06-15T08:23:37.341Z,97604.98
2019-06-15T08:26:37.937Z,97612.89
2019-06-15T08:29:34.519Z,97620.67
2019-06-15T08:32:07.338Z,97612.54
2019-06-15T08:34:37.481Z,97625.83
2019-06-15T08:37:07.449Z,97627.16
2019-06-15T08:39:37.021Z,97624.50
2019-06-15T08:42:07.282Z,97624.19
2019-06-15T08:44:37.529Z,97621.92
2019-06-15T08:47:07.540Z,97632.13
2019-06-15T08:49:37.140Z,97638.65
2019-06-15T08:52:07.409Z,97637.81
2019-06-15T08:54:37.304Z,97647.52
2019-06-15T08:57:07.574Z,97643.30
2019-06-15T08:59:37.186Z,97642.80
2019-06-15T09:02:07.477Z,97635.67
2019-06-15T09:04:37.124Z,97638.87
2019-06-15T09:07:07.173Z,97627.28
2019-06-15T09:09:36.861Z,97631.54
2019-06-15T09:12:08.184Z,97635.66
2019-06-15T09:14:38.148Z,97637.92
2019-06-15T09:17:08.316Z,97637.73
2019-06-15T09:19:38.143Z,97635.81
2019-06-15T09:22:10.732Z,97633.84
2019-06-15T09:24:40.663Z,97636.34
2019-06-15T09:27:10.848Z,97632.70
2019-06-15T09:29:41.019Z,97635.30
2019-06-15T09:32:11.305Z,97636.75
2019-06-15T09:34:41.009Z,97636.23
2019-06-15T09:37:38.401Z,97635.22
2019-06-15T09:40:08.368Z,97637.19
2019-06-15T09:42:39.097Z,97634.28
2019-06-15T09:45:09.869Z,97634.70
2019-06-15T09:47:40.341Z,97642.19
2019-06-15T09:50:10.347Z,97643.38
2019-06-15T10:00:36.386Z,97648.98
2019-06-15T10:03:37.282Z,97639.59
2019-06-15T10:06:36.747Z,97647.12
2019-06-15T10:19:34.821Z,97659.13
2019-06-15T10:22:37.473Z,97653.02
2019-06-15T10:28:32.374Z,97671.80
2019-06-15T10:31:02.840Z,97668.23
2019-06-15T10:33:32.571Z,97672.78
2019-06-15T10:36:02.705Z,97673.66
2019-06-15T10:38:33.014Z,97681.45
2019-06-15T10:41:03.420Z,97675.59
2019-06-15T10:43:33.098Z,97680.62
2019-06-15T10:46:03.533Z,97682.42
2019-06-15T10:48:33.522Z,97682.83
2019-06-15T10:51:03.513Z,97682.63
2019-06-15T10:53:33.678Z,97679.50
2019-06-15T10:56:04.121Z,97671.91
2019-06-15T10:58:33.775Z,97677.43
2019-06-15T11:01:04.069Z,97676.23
2019-06-15T11:03:34.439Z,97675.23
2019-06-15T11:06:04.470Z,97684.69
2019-06-15T11:08:34.316Z,97679.62
2019-06-15T11:11:07.137Z,97675.28
2019-06-15T11:13:37.049Z,97673.49
2019-06-15T11:16:07.227Z,97684.50
2019-06-15T11:18:37.352Z,97682.36
2019-06-15T11:21:07.789Z,97684.85
2019-06-15T11:23:37.714Z,97688.11
2019-06-15T11:26:07.797Z,97686.25
2019-06-15T11:28:37.476Z,97685.16
2019-06-15T11:31:07.814Z,97672.44
2019-06-15T11:33:37.824Z,97689.53
2019-06-15T11:36:07.754Z,97688.98
2019-06-15T11:38:37.531Z,97689.42
2019-06-15T11:41:08.059Z,97691.64
2019-06-15T11:43:39.313Z,97699.66
2019-06-15T11:46:09.194Z,97696.27
2019-06-15T11:48:41.739Z,97691.78
2019-06-15T11:51:11.601Z,97695.16
2019-06-15T11:53:41.589Z,97700.71
2019-06-15T11:56:11.638Z,97698.17
2019-06-15T11:58:41.840Z,97692.73
2019-06-15T12:01:11.649Z,97696.84
2019-06-15T12:03:41.933Z,97690.08
2019-06-15T12:06:11.431Z,97703.75
2019-06-15T12:08:42.161Z,97688.02
2019-06-15T12:11:11.980Z,97691.78
2019-06-15T12:13:42.038Z,97695.33
2019-06-15T12:16:12.013Z,97695.73
2019-06-15T12:18:42.288Z,97688.11
2019-06-15T12:21:12.326Z,97695.59
2019-06-15T12:23:42.234Z,97687.16
2019-06-15T12:26:12.375Z,97692.35
2019-06-15T12:28:42.693Z,97687.86
2019-06-15T12:31:13.197Z,97697.18
2019-06-15T12:33:43.426Z,97703.47
2019-06-15T12:36:19.282Z,97699.27
2019-06-15T12:38:46.283Z,97694.63
2019-06-15T12:41:16.066Z,97701.63
2019-06-15T12:43:46.290Z,97689.64
2019-06-15T12:46:16.326Z,97696.99
2019-06-15T12:48:46.722Z,97689.53
2019-06-15T12:51:16.926Z,97695.50
2019-06-15T12:53:50.141Z,97691.90
2019-06-15T12:56:20.220Z,97690.72
2019-06-15T12:58:50.436Z,97688.14
2019-06-15T13:01:20.252Z,97694.11
2019-06-15T13:03:50.407Z,97697.05
2019-06-15T13:06:19.839Z,97689.90
2019-06-15T13:08:49.620Z,97697.51
2019-06-15T13:11:19.891Z,97697.14
2019-06-15T13:13:49.529Z,97698.92
2019-06-15T13:16:19.489Z,97698.94
2019-06-15T13:18:49.542Z,97695.77
2019-06-15T13:21:19.809Z,97696.58
2019-06-15T13:23:49.741Z,97689.80
2019-06-15T13:26:19.641Z,97689.58
2019-06-15T13:28:51.140Z,97698.86
2019-06-15T13:31:21.206Z,97689.16
2019-06-15T13:33:49.645Z,97694.15
2019-06-15T13:36:17.952Z,97695.78
2019-06-15T13:38:46.250Z,97681.61
2019-06-15T13:41:14.653Z,97688.08
2019-06-15T13:43:43.025Z,97688.91
2019-06-15T13:46:11.517Z,97685.55
2019-06-15T13:48:39.970Z,97678.38
2019-06-15T13:51:08.515Z,97679.85
2019-06-15T13:53:36.848Z,97681.10
2019-06-15T13:56:08.144Z,97687.44
2019-06-15T13:58:36.640Z,97683.30
2019-06-15T14:01:06.793Z,97680.78
2019-06-15T14:03:38.103Z,97684.71
2019-06-15T14:06:08.677Z,97682.19
2019-06-15T14:08:38.994Z,97685.22
2019-06-15T14:11:08.845Z,97682.08
2019-06-15T14:13:39.124Z,97676.17
2019-06-15T14:16:09.391Z,97681.03
2019-06-15T14:18:40.196Z,97679.88
2019-06-15T14:21:10.405Z,97680.52
2019-06-15T14:23:40.304Z,97685.13
2019-06-15T14:26:10.237Z,97679.77
2019-06-15T14:28:40.211Z,97679.58
2019-06-15T14:31:10.458Z,97680.81
2019-06-15T14:33:38.857Z,97692.35
2019-06-15T14:36:07.314Z,97689.58
2019-06-15T14:38:35.662Z,97687.38
2019-06-15T14:41:04.066Z,97685.02
2019-06-15T14:43:32.406Z,97694.48
2019-06-15T14:46:00.859Z,97692.23
2019-06-15T14:48:30.547Z,97697.86
2019-06-15T14:51:00.250Z,97692.48
2019-06-15T14:53:28.593Z,97691.11
2019-06-15T14:55:59.897Z,97692.81
2019-06-15T14:58:30.440Z,97683.30
2019-06-15T15:01:00.349Z,97680.14
2019-06-15T15:03:30.787Z,97680.23
2019-06-15T15:06:00.582Z,97677.86
2019-06-15T15:08:30.952Z,97674.41
2019-06-15T15:11:00.955Z,97677.94
2019-06-15T15:13:31.592Z,97667.80
2019-06-15T15:16:01.794Z,97663.19
2019-06-15T15:18:31.806Z,97665.24
2019-06-15T15:21:00.796Z,97669.98
2019-06-15T15:23:29.802Z,97672.79
2019-06-15T15:25:59.603Z,97669.01
2019-06-15T15:28:30.997Z,97668.50
2019-06-15T15:30:58.034Z,97674.11
2019-06-15T15:33:26.456Z,97677.20
2019-06-15T15:35:54.730Z,97669.77
2019-06-15T15:38:23.156Z,97669.30
2019-06-15T15:40:51.470Z,97668.63
2019-06-15T15:43:19.788Z,97670.89
2019-06-15T15:45:48.088Z,97663.85
2019-06-15T15:48:18.520Z,97661.73
2019-06-15T15:50:46.968Z,97667.45
2019-06-15T15:53:15.525Z,97665.48
2019-06-15T15:55:43.855Z,97666.45
2019-06-15T15:58:12.181Z,97669.42
2019-06-15T16:00:40.650Z,97675.20
2019-06-15T16:03:09.116Z,97672.08
2019-06-15T16:05:37.518Z,97672.86
2019-06-15T16:08:06.664Z,97668.34
2019-06-15T16:10:37.360Z,97670.13
2019-06-15T16:13:06.436Z,97669.97
2019-06-15T16:15:37.149Z,97679.80
2019-06-15T16:18:06.824Z,97673.29
2019-06-15T16:20:36.959Z,97672.50
2019-06-15T16:23:07.459Z,97671.91
2019-06-15T16:25:37.160Z,97674.28
2019-06-15T16:28:07.091Z,97668.58
2019-06-15T16:30:59.654Z,97659.48
2019-06-15T16:33:07.707Z,97662.42
2019-06-15T16:35:36.915Z,97663.97
2019-06-15T16:38:06.834Z,97672.03
2019-06-15T16:40:39.403Z,97675.54
2019-06-15T16:43:08.048Z,97678.30
2019-06-15T16:45:36.767Z,97678.23
2019-06-15T16:48:06.368Z,97677.97
2019-06-15T16:50:36.669Z,97674.81
2019-06-15T16:53:05.493Z,97675.39
2019-06-15T16:55:36.558Z,97672.06
2019-06-15T16:58:04.123Z,97670.89
2019-06-15T17:00:36.358Z,97672.06
2019-06-15T17:03:20.278Z,97669.16
2019-06-15T17:05:36.214Z,97674.05
2019-06-15T17:08:06.907Z,97676.44
2019-06-15T17:10:38.452Z,97680.84
2019-06-15T17:13:07.741Z,97679.30
2019-06-15T17:15:37.115Z,97679.06
2019-06-15T17:18:05.783Z,97681.22
2019-06-15T17:20:39.930Z,97678.42
2019-06-15T17:23:08.331Z,97677.20
2019-06-15T17:25:37.297Z,97678.95
2019-06-15T17:28:05.653Z,97687.44
2019-06-15T17:30:36.863Z,97676.61
2019-06-15T17:33:05.937Z,97674.98
2019-06-15T17:35:36.265Z,97675.19
2019-06-15T17:38:04.602Z,97676.74
2019-06-15T17:40:33.181Z,97681.66
2019-06-15T17:43:01.681Z,97680.87
2019-06-15T17:45:30.051Z,97678.88
2019-06-15T17:47:58.525Z,97681.28
2019-06-15T17:50:40.969Z,97668.52
2019-06-15T17:53:09.626Z,97664.77
2019-06-15T17:55:38.511Z,97667.01
2019-06-15T17:58:07.319Z,97668.84
2019-06-15T18:00:46.708Z,97667.03
2019-06-15T18:03:16.773Z,97665.05
2019-06-15T18:05:44.360Z,97660.48
2019-06-15T18:08:12.933Z,97653.61
2019-06-15T18:10:41.245Z,97651.45
2019-06-15T18:13:09.815Z,97661.39
2019-06-15T18:15:38.211Z,97662.97
2019-06-15T18:18:07.218Z,97655.51
2019-06-15T18:20:36.400Z,97651.15
2019-06-15T18:23:06.086Z,97644.30
2019-06-15T18:25:37.051Z,97645.03
2019-06-15T18:28:06.487Z,97644.66
2019-06-15T18:30:37.141Z,97639.74
2019-06-15T18:33:07.073Z,97636.41
2019-06-15T18:35:36.163Z,97640.70
2019-06-15T18:38:07.065Z,97651.88
2019-06-15T18:40:37.004Z,97654.59
2019-06-15T18:43:07.103Z,97647.06
2019-06-15T18:45:36.158Z,97655.94
2019-06-15T18:48:06.238Z,97654.59
2019-06-15T18:50:39.926Z,97647.48
2019-06-15T18:53:08.517Z,97638.23
2019-06-15T18:55:37.092Z,97646.89
2019-06-15T18:58:05.587Z,97643.73
2019-06-15T19:00:34.094Z,97647.38
2019-06-15T19:03:06.917Z,97654.47
2019-06-15T19:05:37.247Z,97650.61
2019-06-15T19:08:06.552Z,97640.25
2019-06-15T19:10:37.198Z,97636.75
2019-06-15T19:13:07.399Z,97641.41
2019-06-15T19:15:37.281Z,97649.06
2019-06-15T19:18:07.495Z,97643.56
2019-06-15T19:20:37.267Z,97637.59
2019-06-15T19:23:06.806Z,97639.97
2019-06-15T19:25:36.361Z,97646.91
2019-06-15T19:28:05.261Z,97645.03
2019-06-15T19:30:33.665Z,97643.38
2019-06-15T19:33:01.959Z,97646.86
2019-06-15T19:35:30.313Z,97655.35
2019-06-15T19:37:58.716Z,97655.79
2019-06-15T19:40:27.195Z,97657.16
2019-06-15T19:42:57.022Z,97657.73
2019-06-15T19:45:26.700Z,97656.14
2019-06-15T19:47:55.139Z,97651.75
2019-06-15T19:50:23.496Z,97661.76
2019-06-15T19:52:51.859Z,97662.69
2019-06-15T19:55:20.369Z,97676.81
2019-06-15T19:57:48.719Z,97685.08
2019-06-15T20:00:17.428Z,97687.31
2019-06-15T20:02:47.979Z,97696.09
2019-06-15T20:05:16.006Z,97699.99
2019-06-15T20:07:46.607Z,97702.87
2019-06-15T20:10:16.486Z,97693.06
2019-06-15T20:12:46.576Z,97678.23
2019-06-15T20:15:16.819Z,97687.38
2019-06-15T20:17:46.161Z,97688.26
2019-06-15T20:20:14.889Z,97685.35
2019-06-15T20:22:43.284Z,97687.02
2019-06-15T20:25:11.922Z,97704.94
2019-06-15T20:27:40.263Z,97719.94
2019-06-15T20:30:09.147Z,97734.19
2019-06-15T20:32:37.617Z,97755.98
2019-06-15T20:35:16.598Z,97751.03
2019-06-15T20:37:39.241Z,97753.25
2019-06-15T20:40:09.395Z,97749.08
2019-06-15T20:42:38.082Z,97742.36
2019-06-15T20:45:11.141Z,97745.53
2019-06-15T20:47:39.540Z,97760.37
2019-06-15T20:50:21.970Z,97769.81
2019-06-15T20:52:39.099Z,97781.47
2019-06-15T20:55:07.644Z,97789.04
2019-06-15T20:57:36.126Z,97801.09
2019-06-15T21:00:06.664Z,97813.52
2019-06-15T21:02:36.188Z,97820.67
2019-06-15T21:05:07.711Z,97829.37
2019-06-15T21:07:36.312Z,97838.37
2019-06-15T21:10:07.218Z,97849.36
2019-06-15T21:12:37.505Z,97861.49
2019-06-15T21:15:07.395Z,97866.16
2019-06-15T21:17:37.145Z,97873.00
2019-06-15T21:20:09.333Z,97869.19
2019-06-15T21:22:37.760Z,97869.19
2019-06-15T21:25:07.502Z,97871.53
2019-06-15T21:27:36.842Z,97873.92
2019-06-15T21:30:10.243Z,97875.73
2019-06-15T21:32:38.656Z,97883.72
2019-06-15T21:35:10.549Z,97881.63
2019-06-15T21:37:39.133Z,97888.81
2019-06-15T21:40:08.059Z,97893.61
2019-06-15T21:42:36.453Z,97903.72
2019-06-15T21:45:07.587Z,97908.99
2019-06-15T21:47:37.175Z,97931.61
2019-06-15T21:50:09.623Z,97941.53
2019-06-15T21:52:37.937Z,97950.76
2019-06-15T21:55:07.197Z,97947.27
2019-06-15T21:57:36.564Z,97964.45
2019-06-15T22:00:17.197Z,97970.20
2019-06-15T22:02:46.924Z,97970.98
2019-06-15T22:05:16.620Z,97975.45
2019-06-15T22:07:44.571Z,97971.25
2019-06-15T22:10:13.141Z,97980.42
2019-06-15T22:12:41.571Z,97990.66
2019-06-15T22:15:10.884Z,97996.94
2019-06-15T22:17:39.241Z,97995.34
2019-06-15T22:20:07.949Z,97989.07
2019-06-15T22:22:36.610Z,97987.83
2019-06-15T22:25:06.934Z,97988.47
2019-06-15T22:27:36.198Z,97981.60
2019-06-15T22:30:08.314Z,97992.34
2019-06-15T22:32:36.774Z,97995.30
2019-06-15T22:35:07.501Z,97999.53
2019-06-15T22:37:36.139Z,98004.02
2019-06-15T22:40:08.407Z,97998.38
2019-06-15T22:42:36.846Z,97999.14
2019-06-15T22:45:06.884Z,97998.63
2019-06-15T22:47:36.139Z,97987.78
2019-06-15T22:50:07.050Z,97989.17
2019-06-15T22:52:36.391Z,97978.62
2019-06-15T22:55:08.116Z,97972.20
2019-06-15T22:57:37.103Z,97953.49
2019-06-15T23:00:07.606Z,97955.52
2019-06-15T23:02:36.467Z,97965.66
2019-06-15T23:05:06.523Z,97965.84
2019-06-15T23:07:36.292Z,97972.53
2019-06-15T23:10:07.044Z,97972.68
2019-06-15T23:12:37.242Z,97977.26
2019-06-15T23:15:07.218Z,97981.95
2019-06-15T23:17:37.156Z,97981.48
2019-06-15T23:20:06.767Z,97979.00
2019-06-15T23:22:35.569Z,97987.40
2019-06-15T23:25:06.206Z,97985.80
2019-06-15T23:27:34.793Z,97989.05
2019-06-15T23:30:06.731Z,97992.01
2019-06-15T23:32:34.958Z,98002.11
2019-06-15T23:35:06.490Z,98006.28
2019-06-15T23:37:37.332Z,98005.36
2019-06-15T23:40:16.919Z,98012.28
2019-06-15T23:42:46.000Z,98006.48
2019-06-15T23:45:16.104Z,98012.34
2019-06-15T23:47:46.701Z,98016.89
2019-06-15T23:50:17.012Z,98017.16
2019-06-15T23:52:46.848Z,98021.45
2019-06-15T23:55:16.462Z,98017.66
2019-06-15T23:57:46.490Z,98015.47
